Flight Track Log - Related Links

Times and Time Zones

All times are in EDT time to prevent confusion due to time zone crossing. See the SWA1398 flight status page for this flight to view local times or setup timezone preferences in your user account.

Time Position Orientation Groundspeed Altitude Reporting Facility
EDT Latitude Longitude Course Direction KTS MPH feet Rate Location/Type
Sat 06:28:29 PM 28.4000 -81.3000 156° South 169 194 900  Level Orlando TRACON
Sat 06:29:11 PM 28.3667 -81.2833 156° South 182 209 2,200 2,118 Climbing Orlando TRACON
Sat 06:30:11 PM 28.3333 -81.2333 127° Southeast 226 260 4,500 2,600 Climbing Orlando TRACON
Sat 06:31:11 PM 28.3500 -81.1667 74° East 271 312 7,400 2,863 Climbing Orlando TRACON
Sat 06:33:28 PM 28.5183 -81.1844 355° North 270 311 13,900 2,893 Climbing Jacksonville Center
Sat 06:34:28 PM 28.6169 -81.2183 343° North 321 369 16,900 2,850 Climbing Jacksonville Center
Sat 06:35:28 PM 28.7197 -81.2567 342° North 357 411 19,600 2,650 Climbing Jacksonville Center
Sat 06:36:28 PM 28.8267 -81.2953 342° North 386 444 22,200 2,550 Climbing Jacksonville Center
Sat 06:37:28 PM 28.9378 -81.3314 344° North 402 463 24,700 2,350 Climbing Jacksonville Center
Sat 06:38:28 PM 29.0489 -81.3725 342° North 407 468 26,900 2,000 Climbing Jacksonville Center
Sat 06:39:28 PM 29.1700 -81.3850 355° North 417 480 28,700 1,050 Climbing Jacksonville Center
Sat 06:40:28 PM 29.2931 -81.3878 359° North 429 494 29,000 600 Climbing Jacksonville Center
Sat 06:41:28 PM 29.4183 -81.3906 359° North 440 506 29,900 1,600 Climbing Jacksonville Center
Sat 06:42:28 PM 29.5417 -81.3958 358° North 440 506 32,200 1,850 Climbing Jacksonville Center
Sat 06:43:28 PM 29.6647 -81.3964 360° North 440 506 33,600 1,400 Climbing Jacksonville Center
Sat 06:44:28 PM 29.7881 -81.3992 359° North 440 506 35,000 700 Climbing Jacksonville Center
Sat 06:45:28 PM 29.9133 -81.4022 359° North 440 506 35,000  Level Jacksonville Center
Sat 06:46:28 PM 30.0344 -81.4050 359° North 440 506 35,000  Level Jacksonville Center
Sat 06:47:28 PM 30.1472 -81.4056 360° North 440 506 35,000 500 Level Jacksonville Center
Sat 06:48:28 PM 30.2658 -81.3678 15° North 433 498 36,000 900 Climbing Jacksonville Center
Sat 06:49:28 PM 30.3842 -81.3106 23° Northeast 438 504 36,800 1,050 Climbing Jacksonville Center
Sat 06:50:28 PM 30.5003 -81.2556 22° Northeast 443 510 38,100 1,100 Climbing Jacksonville Center
Sat 06:51:28 PM 30.6100 -81.1836 29° Northeast 443 510 39,000 450 Climbing Jacksonville Center
Sat 06:52:28 PM 30.7217 -81.1117 29° Northeast 448 516 39,000  Level Jacksonville Center
Sat 06:53:28 PM 30.8314 -81.0417 29° Northeast 448 516 39,000  Level Jacksonville Center
Sat 06:54:28 PM 30.9431 -80.9669 30° Northeast 453 521 39,000  Level Jacksonville Center
Sat 06:55:28 PM 31.0506 -80.8969 29° Northeast 453 521 39,000  Level Jacksonville Center
Sat 06:56:28 PM 31.1600 -80.8267 29° Northeast 453 521 39,000  Level Jacksonville Center
Sat 06:57:28 PM 31.2675 -80.7536 30° Northeast 453 521 39,000  Level Jacksonville Center
Sat 06:58:28 PM 31.3747 -80.6808 30° Northeast 448 516 39,000  Level Jacksonville Center
Sat 06:59:28 PM 31.4861 -80.6097 29° Northeast 448 516 39,000  Level Jacksonville Center
Sat 07:00:28 PM 31.5914 -80.5367 31° Northeast 448 516 39,000  Level Jacksonville Center
Sat 07:01:28 PM 31.7108 -80.4553 30° Northeast 448 516 39,000  Level Jacksonville Center
Sat 07:02:28 PM 31.8097 -80.3892 30° Northeast 443 510 39,000  Level Jacksonville Center
Sat 07:03:28 PM 31.9169 -80.3153 30° Northeast 443 510 39,000  Level Jacksonville Center
Sat 07:04:28 PM 32.0219 -80.2439 30° Northeast 438 504 39,000  Level Jacksonville Center
Sat 07:05:28 PM 32.1311 -80.1719 29° Northeast 438 504 39,000  Level Jacksonville Center
Sat 07:06:28 PM 32.2381 -80.0975 30° Northeast 438 504 39,000  Level Jacksonville Center
Sat 07:07:28 PM 32.3428 -80.0281 29° Northeast 438 504 39,000  Level Jacksonville Center
Sat 07:08:28 PM 32.4456 -79.9558 31° Northeast 438 504 39,000  Level Jacksonville Center
Sat 07:09:28 PM 32.5525 -79.8808 31° Northeast 438 504 39,000  Level Jacksonville Center
Sat 07:10:28 PM 32.6572 -79.8108 29° Northeast 438 504 39,000  Level Jacksonville Center
Sat 07:11:28 PM 32.7719 -79.7253 32° Northeast 443 510 39,000  Level Jacksonville Center
Sat 07:12:28 PM 32.8700 -79.6453 34° Northeast 443 510 39,000  Level Jacksonville Center
Sat 07:13:28 PM 32.9722 -79.5622 34° Northeast 443 510 39,000  Level Jacksonville Center
Sat 07:14:28 PM 33.0767 -79.4792 34° Northeast 443 510 39,000  Level Jacksonville Center
Sat 07:15:28 PM 33.1808 -79.3958 34° Northeast 443 510 39,000 -100 Level Jacksonville Center
Sat 07:16:28 PM 33.2825 -79.3097 35° Northeast 443 510 38,800 -600 Descending Jacksonville Center
Sat 07:17:28 PM 33.3844 -79.2261 34° Northeast 443 510 37,800 -1,000 Descending Jacksonville Center
Sat 07:18:28 PM 33.4925 -79.1394 34° Northeast 448 516 36,800 -900 Descending Jacksonville Center
Sat 07:19:28 PM 33.5844 -79.0656 34° Northeast 443 510 36,000 -688 Descending Jacksonville Center
Sat 07:21:05 PM 33.7561 -78.9236 34° Northeast 446 513 35,000 -387 Descending Washington Center
Sat 07:22:03 PM 33.8608 -78.8378 34° Northeast 451 519 35,000  Level Washington Center
Sat 07:23:05 PM 33.9653 -78.7542 34° Northeast 451 519 35,000  Level Washington Center
Sat 07:24:05 PM 34.0697 -78.6656 35° Northeast 456 525 35,000  Level Washington Center
Sat 07:25:03 PM 34.1742 -78.5789 34° Northeast 456 525 35,000  Level Washington Center
Sat 07:26:04 PM 34.2786 -78.4922 34° Northeast 456 525 35,000  Level Washington Center
Sat 07:27:05 PM 34.3828 -78.4078 34° Northeast 456 525 35,000  Level Washington Center
Sat 07:28:05 PM 34.4850 -78.3206 35° Northeast 456 525 35,000  Level Washington Center
Sat 07:29:03 PM 34.5933 -78.2308 34° Northeast 456 525 35,000  Level Washington Center
Sat 07:30:04 PM 34.6997 -78.1408 35° Northeast 456 525 35,000  Level Washington Center
Sat 07:31:05 PM 34.8017 -78.0506 36° Northeast 456 525 35,000  Level Washington Center
Sat 07:32:03 PM 34.8953 -77.9647 37° Northeast 456 525 35,000  Level Washington Center
Sat 07:33:03 PM 34.9969 -77.8789 35° Northeast 456 525 35,000  Level Washington Center
Sat 07:34:05 PM 35.1053 -77.7881 34° Northeast 456 525 35,000  Level Washington Center
Sat 07:35:05 PM 35.2092 -77.6969 36° Northeast 456 525 35,000  Level Washington Center
Sat 07:36:03 PM 35.3128 -77.6081 35° Northeast 456 525 35,000  Level Washington Center
Sat 07:37:04 PM 35.4186 -77.5164 35° Northeast 456 525 35,000  Level Washington Center
Sat 07:38:04 PM 35.5222 -77.4269 35° Northeast 456 525 35,000  Level Washington Center
Sat 07:39:05 PM 35.6281 -77.3372 35° Northeast 456 525 35,000  Level Washington Center
Sat 07:40:05 PM 35.7294 -77.2425 37° Northeast 461 531 35,000  Level Washington Center
Sat 07:41:03 PM 35.8350 -77.1522 35° Northeast 456 525 35,000  Level Washington Center
Sat 07:42:03 PM 35.9469 -77.0494 37° Northeast 456 525 35,000  Level Washington Center
Sat 07:43:04 PM 36.0503 -76.9586 35° Northeast 456 525 35,000  Level Washington Center
Sat 07:44:05 PM 36.1533 -76.8653 36° Northeast 456 525 35,000  Level Washington Center
Sat 07:45:02 PM 36.2567 -76.7742 35° Northeast 456 525 35,000  Level Washington Center
Sat 07:46:03 PM 36.3619 -76.6831 35° Northeast 456 525 35,000  Level Washington Center
Sat 07:47:04 PM 36.4647 -76.5889 36° Northeast 456 525 35,000 -450 Level Washington Center
Sat 07:48:03 PM 36.5719 -76.5128 30° Northeast 456 525 34,100 -950 Descending Washington Center
Sat 07:49:04 PM 36.6850 -76.4364 28° Northeast 456 525 33,100 -950 Descending Washington Center
Sat 07:50:03 PM 36.7942 -76.3569 30° Northeast 451 519 32,200 -958 Descending Washington Center
Sat 07:51:03 PM 36.9050 -76.2803 29° Northeast 451 519 31,200 -1,059 Descending Washington Center
Sat 07:52:02 PM 37.0139 -76.2031 30° Northeast 445 512 30,100 -992 Descending Washington Center
Sat 07:53:04 PM 37.1125 -76.1389 27° Northeast 440 506 29,200 -934 Descending Washington Center
Sat 07:54:04 PM 37.2169 -76.0664 29° Northeast 434 499 28,200 -1,041 Descending Washington Center
Sat 07:55:05 PM 37.3172 -75.9967 29° Northeast 423 487 27,100 -1,424 Descending Washington Center
Sat 07:56:02 PM 37.4136 -75.9292 29° Northeast 410 472 25,400 -1,059 Descending Washington Center
Sat 07:57:04 PM 37.5139 -75.8561 30° Northeast 405 466 25,000 -197 Descending Washington Center
Sat 07:58:04 PM 37.6161 -75.7831 30° Northeast 405 466 25,000  Level Washington Center
Sat 07:59:05 PM 37.7183 -75.7125 29° Northeast 405 466 25,000  Level Washington Center
Sat 08:00:04 PM 37.8206 -75.6364 30° Northeast 410 472 25,000  Level Washington Center
Sat 08:01:04 PM 37.9228 -75.5628 30° Northeast 415 478 25,000  Level Washington Center
Sat 08:02:05 PM 38.0250 -75.4917 29° Northeast 415 478 25,000  Level Washington Center
Sat 08:03:03 PM 38.1292 -75.4256 27° Northeast 415 478 25,000 -50 Level Washington Center
Sat 08:04:05 PM 38.2375 -75.3592 26° Northeast 415 478 24,900 -1,150 Descending Washington Center
Sat 08:05:03 PM 38.3394 -75.2847 30° Northeast 420 483 22,700 -2,288 Descending Washington Center
Sat 08:06:03 PM 38.4394 -75.2233 26° Northeast 408 470 20,400 -2,262 Descending Washington Center
Sat 08:07:05 PM 38.5353 -75.1644 26° Northeast 389 448 18,100 -2,450 Descending Washington Center
Sat 08:08:03 PM 38.6267 -75.1053 27° Northeast 371 427 15,500 -1,550 Descending Washington Center
Sat 08:09:05 PM 38.7267 -75.0808 11° North 366 421 15,000 -248 Descending Washington Center
Sat 08:10:04 PM 38.8286 -75.0667 North 356 410 15,000  Level Washington Center
Sat 08:11:04 PM 38.9267 -75.0525 North 356 410 15,000 -198 Level Washington Center
Sat 08:12:05 PM 39.0267 -75.0386 North 356 410 14,600 -1,361 Descending Washington Center
Sat 08:13:03 PM 39.1267 -75.0244 North 356 410 12,300 -1,607 Descending Washington Center
Sat 08:14:53 PM 39.3000 -75.0000 North 285 328 10,100 -1,165 Descending Philadelphia TRACON
Sat 08:15:53 PM 39.3833 -74.9833 North 266 306 9,000 -579 Descending Philadelphia TRACON
Sat 08:16:47 PM 39.4333 -74.9833 360° North 253 291 9,000 -158 Level Philadelphia TRACON
Sat 08:17:47 PM 39.5000 -74.9667 11° North 254 292 8,700 -700 Descending Philadelphia TRACON
Sat 08:18:47 PM 39.5833 -74.9667 360° North 250 288 7,600 -1,048 Descending Philadelphia TRACON
Sat 08:19:53 PM 39.6500 -74.9500 11° North 251 289 6,500 -1,143 Descending Philadelphia TRACON
Sat 08:20:53 PM 39.7167 -74.9833 339° North 254 292 5,200 -1,300 Descending Philadelphia TRACON
Sat 08:21:53 PM 39.7833 -75.0333 330° Northwest 238 274 3,900 -1,150 Descending Philadelphia TRACON
Sat 08:22:53 PM 39.8333 -75.0667 333° Northwest 210 242 2,900 -950 Descending Philadelphia TRACON
Sat 08:23:53 PM 39.8667 -75.1000 322° Northwest 151 174 2,000 -750 Descending Philadelphia TRACON
Sat 08:24:53 PM 39.8833 -75.1500 293° West 137 158 1,400 -700 Descending Philadelphia TRACON
Sat 08:25:53 PM 39.8833 -75.1833 270° West 133 153 600 -800 Descending Philadelphia TRACON

Login

Don't have an account? Register now (free) for customized features, flight alerts, and more!